Time;durP1;ratioP1;P1;durP2;ratioP2;P2;SDS_P1;SDS_P2;PMS_P1;PMS_P2;Temp;Humidity;BMP_temperature;BMP_pressure;BME280_temperature;BME280_humidity;BME280_pressure;Samples;Min_cycle;Max_cycle;Signal;HPM_P1;HPM_P2
2021/05/15 00:01:49;;;;;;;4.55;2.90;;;16.10;96.00;;;;;;5014021;28;20025;-49
2021/05/15 00:04:16;;;;;;;3.70;3.03;;;15.90;94.60;;;;;;5014311;28;20029;-48
2021/05/15 00:06:44;;;;;;;2.72;2.53;;;16.00;95.60;;;;;;5014053;28;20533;-51
2021/05/15 00:09:11;;;;;;;3.47;3.10;;;16.30;94.40;;;;;;5014014;28;20100;-51
2021/05/15 00:11:38;;;;;;;3.20;2.90;;;16.20;94.50;;;;;;5013109;28;20017;-50
2021/05/15 00:14:06;;;;;;;3.53;3.05;;;16.40;94.50;;;;;;5013721;28;20456;-48
2021/05/15 00:16:33;;;;;;;3.00;2.80;;;16.60;94.90;;;;;;5013778;28;20105;-52
2021/05/15 00:19:01;;;;;;;3.25;2.92;;;16.70;94.50;;;;;;4996295;28;20398;-50
2021/05/15 00:21:28;;;;;;;3.17;2.88;;;16.80;95.80;;;;;;5013874;28;20033;-49
2021/05/15 00:23:56;;;;;;;2.90;2.80;;;17.00;94.60;;;;;;4996206;28;20064;-52
2021/05/15 00:26:23;;;;;;;3.25;2.90;;;17.10;94.00;;;;;;5013606;28;20022;-50
2021/05/15 00:28:50;;;;;;;3.05;2.75;;;17.10;93.20;;;;;;5013366;28;20030;-49
2021/05/15 00:31:18;;;;;;;3.55;2.50;;;16.90;94.00;;;;;;5013720;28;20029;-52
2021/05/15 00:33:45;;;;;;;2.58;2.35;;;17.10;93.00;;;;;;5013519;28;20076;-50
2021/05/15 00:36:12;;;;;;;3.15;2.95;;;17.00;93.10;;;;;;5013497;28;20022;-50
2021/05/15 00:38:40;;;;;;;2.95;2.75;;;16.90;93.10;;;;;;5013554;28;20506;-50
2021/05/15 00:41:07;;;;;;;3.75;2.90;;;16.90;92.60;;;;;;5013340;28;20030;-50
2021/05/15 00:43:35;;;;;;;2.50;2.40;;;16.80;92.10;;;;;;5013240;28;20025;-54
2021/05/15 00:46:02;;;;;;;2.50;2.40;;;16.70;92.60;;;;;;5013655;28;20029;-49
2021/05/15 00:48:29;;;;;;;3.00;2.80;;;16.80;93.20;;;;;;5013375;28;20399;-51
2021/05/15 00:50:57;;;;;;;3.03;2.92;;;16.80;93.80;;;;;;4995768;28;20022;-51
2021/05/15 00:53:24;;;;;;;2.92;2.72;;;16.90;92.40;;;;;;5013380;28;20029;-48
2021/05/15 00:55:52;;;;;;;3.72;3.42;;;17.30;92.30;;;;;;5013205;28;20122;-48
2021/05/15 00:58:19;;;;;;;2.55;2.33;;;17.60;91.50;;;;;;5013146;28;20026;-49
2021/05/15 01:00:46;;;;;;;2.80;2.63;;;18.00;91.50;;;;;;5013040;28;20487;-47
2021/05/15 01:03:14;;;;;;;2.80;2.60;;;18.00;91.00;;;;;;5013180;28;20056;-53
2021/05/15 01:05:41;;;;;;;3.70;3.40;;;18.20;90.50;;;;;;5013224;28;20434;-50
2021/05/15 01:08:08;;;;;;;3.22;3.03;;;18.60;90.90;;;;;;5013158;28;20054;-49
2021/05/15 01:10:36;;;;;;;2.90;2.60;;;18.50;90.60;;;;;;5013157;28;20101;-53
2021/05/15 01:13:03;;;;;;;2.70;2.50;;;18.30;90.60;;;;;;4995435;28;20032;-48
2021/05/15 01:15:30;;;;;;;3.03;2.83;;;18.30;90.10;;;;;;5012950;28;20050;-52
2021/05/15 01:17:59;;;;;;;2.90;2.70;;;18.50;90.80;;;;;;4995463;28;20117;-54
2021/05/15 01:20:33;;;;;;;2.70;2.50;;;18.80;90.70;;;;;;4995467;28;20037;-50
2021/05/15 01:23:01;;;;;;;3.53;2.42;;;18.90;88.90;;;;;;5015894;28;20073;-52
2021/05/15 01:25:28;;;;;;;3.00;2.88;;;18.30;88.60;;;;;;5017050;28;20056;-48
2021/05/15 01:27:56;;;;;;;3.03;2.83;;;18.00;90.00;;;;;;5016959;28;20037;-51
2021/05/15 01:30:24;;;;;;;2.72;2.53;;;17.70;89.50;;;;;;5016727;28;20556;-51
2021/05/15 01:32:51;;;;;;;2.70;2.60;;;17.60;90.20;;;;;;5016349;28;20033;-53
2021/05/15 01:35:19;;;;;;;2.95;2.70;;;17.40;89.80;;;;;;5016641;28;20077;-53
2021/05/15 01:37:46;;;;;;;2.53;2.42;;;17.50;90.60;;;;;;5016789;28;20108;-51
2021/05/15 01:40:14;;;;;;;3.00;2.80;;;17.60;90.30;;;;;;4999136;28;20438;-51
2021/05/15 01:42:42;;;;;;;2.58;2.47;;;17.80;89.90;;;;;;4999037;28;20505;-52
2021/05/15 01:45:09;;;;;;;2.88;2.78;;;17.50;89.80;;;;;;5016588;28;20018;-50
2021/05/15 01:47:37;;;;;;;3.10;2.90;;;17.50;89.70;;;;;;5016811;28;20032;-48
2021/05/15 01:50:06;;;;;;;3.25;3.05;;;17.50;90.70;;;;;;5016419;28;20030;-54
2021/05/15 01:52:34;;;;;;;2.90;2.80;;;17.70;90.30;;;;;;5016590;28;20030;-49
2021/05/15 01:55:05;;;;;;;3.08;2.80;;;17.60;90.80;;;;;;5016402;28;20018;-51
2021/05/15 01:57:33;;;;;;;2.90;2.70;;;17.30;90.10;;;;;;5016585;28;20037;-51
2021/05/15 02:00:00;;;;;;;2.70;2.60;;;17.40;90.70;;;;;;5016317;28;20112;-49
2021/05/15 02:02:28;;;;;;;3.00;2.90;;;17.40;91.10;;;;;;5016295;28;20030;-53
2021/05/15 02:04:55;;;;;;;4.07;3.28;;;17.10;91.20;;;;;;5016183;28;20125;-56
2021/05/15 02:07:22;;;;;;;3.40;3.20;;;17.30;91.70;;;;;;5016300;28;20034;-50
2021/05/15 02:09:50;;;;;;;3.05;2.80;;;17.20;91.20;;;;;;5016069;28;20034;-54
2021/05/15 02:12:17;;;;;;;3.30;3.00;;;17.30;91.10;;;;;;4998835;28;20029;-47
2021/05/15 02:14:44;;;;;;;3.60;3.30;;;17.10;90.70;;;;;;5015917;28;20030;-50
2021/05/15 02:17:12;;;;;;;2.95;2.75;;;17.30;91.20;;;;;;5015981;28;20026;-52
2021/05/15 02:19:39;;;;;;;3.03;2.92;;;17.40;91.20;;;;;;5015863;28;20041;-52
2021/05/15 02:22:06;;;;;;;3.20;2.70;;;17.40;91.20;;;;;;5015783;28;20026;-51
2021/05/15 02:24:34;;;;;;;2.97;2.78;;;17.60;91.60;;;;;;5015793;28;20049;-49
2021/05/15 02:27:01;;;;;;;3.42;3.10;;;17.60;90.50;;;;;;5015748;28;20050;-49
2021/05/15 02:29:28;;;;;;;3.17;2.97;;;17.60;91.10;;;;;;5015508;28;20096;-51
2021/05/15 02:31:55;;;;;;;2.72;2.50;;;17.60;90.80;;;;;;5015581;28;20479;-49
2021/05/15 02:34:23;;;;;;;2.97;2.78;;;17.60;90.40;;;;;;5014596;28;20060;-49
2021/05/15 02:36:50;;;;;;;2.80;2.60;;;17.30;90.20;;;;;;5015670;28;20014;-50
2021/05/15 02:39:17;;;;;;;2.30;2.20;;;17.50;90.10;;;;;;5015595;28;20026;-49
2021/05/15 02:41:45;;;;;;;3.05;2.72;;;17.50;89.70;;;;;;5015504;28;20045;-51
2021/05/15 02:44:12;;;;;;;2.67;2.58;;;17.50;90.60;;;;;;5015482;28;20025;-50
2021/05/15 02:46:39;;;;;;;2.70;2.60;;;17.40;90.40;;;;;;5015441;28;20018;-52
2021/05/15 02:49:07;;;;;;;3.10;2.90;;;17.30;90.90;;;;;;5015259;28;20025;-49
2021/05/15 02:51:34;;;;;;;3.00;2.80;;;17.20;91.70;;;;;;4997626;28;20022;-49
2021/05/15 02:54:01;;;;;;;3.25;2.90;;;16.60;93.30;;;;;;5015235;28;20501;-49
2021/05/15 02:56:29;;;;;;;3.10;3.00;;;16.10;94.80;;;;;;5015037;28;20471;-47
2021/05/15 02:58:56;;;;;;;4.50;3.40;;;15.70;97.50;;;;;;5015299;28;20026;-52
2021/05/15 03:01:23;;;;;;;3.50;3.30;;;15.40;97.60;;;;;;5015148;28;20022;-50
2021/05/15 03:03:51;;;;;;;3.55;3.20;;;15.30;96.20;;;;;;5015044;28;20068;-48
2021/05/15 03:06:18;;;;;;;12.25;3.10;;;15.10;95.90;;;;;;5014985;28;20030;-48
2021/05/15 03:08:46;;;;;;;3.30;3.03;;;14.90;94.80;;;;;;5015198;28;20510;-48
2021/05/15 03:11:14;;;;;;;2.85;2.70;;;15.10;95.60;;;;;;5014887;28;20018;-50
2021/05/15 03:13:41;;;;;;;3.10;2.90;;;15.00;94.00;;;;;;5014786;28;20106;-53
2021/05/15 03:16:08;;;;;;;3.50;3.30;;;15.10;95.40;;;;;;4997346;28;20526;-53
2021/05/15 03:18:36;;;;;;;3.78;3.30;;;15.20;94.00;;;;;;5014817;28;20026;-56
2021/05/15 03:21:03;;;;;;;3.50;3.40;;;15.40;94.10;;;;;;5014904;28;20022;-55
2021/05/15 03:23:31;;;;;;;3.63;3.33;;;15.80;94.10;;;;;;5014660;28;20410;-58
2021/05/15 03:25:58;;;;;;;3.20;3.10;;;15.60;94.30;;;;;;5014817;28;20101;-55
2021/05/15 03:28:25;;;;;;;3.22;3.03;;;15.60;94.50;;;;;;5014375;28;20482;-56
2021/05/15 03:30:53;;;;;;;2.95;2.70;;;15.60;94.10;;;;;;5014434;28;20044;-57
2021/05/15 03:33:21;;;;;;;3.50;2.80;;;15.50;93.20;;;;;;5014564;28;20021;-53
2021/05/15 03:35:48;;;;;;;2.60;2.50;;;15.50;93.00;;;;;;5014384;28;20053;-53
2021/05/15 03:38:16;;;;;;;3.17;2.92;;;15.70;92.30;;;;;;5014488;28;20030;-54
2021/05/15 03:40:43;;;;;;;3.17;2.85;;;15.80;91.70;;;;;;5014329;28;20022;-49
2021/05/15 03:43:10;;;;;;;2.40;2.30;;;16.00;92.30;;;;;;5014373;28;20029;-52
2021/05/15 03:45:37;;;;;;;2.33;2.20;;;15.80;90.80;;;;;;5013848;28;20108;-53
2021/05/15 03:48:05;;;;;;;2.65;2.55;;;;;;;;;;5014121;28;20132;-51
2021/05/15 03:50:32;;;;;;;2.40;2.30;;;;;;;;;;5014190;28;20475;-53
2021/05/15 03:53:02;;;;;;;2.65;2.45;;;;;;;;;;5013736;28;20423;-56
2021/05/15 03:55:29;;;;;;;2.22;2.13;;;;;;;;;;5014196;28;20018;-53
2021/05/15 03:57:56;;;;;;;3.15;2.95;;;;;;;;;;5013955;28;20390;-54
2021/05/15 04:00:25;;;;;;;2.80;2.60;;;;;;;;;;5014002;28;20025;-54
2021/05/15 04:02:52;;;;;;;2.60;2.50;;;;;;;;;;5014015;28;20025;-52
2021/05/15 04:05:19;;;;;;;3.00;2.70;;;;;;;;;;5013984;28;20022;-54
2021/05/15 04:07:46;;;;;;;4.95;2.88;;;;;;;;;;5013887;28;20030;-50
2021/05/15 04:10:13;;;;;;;2.88;2.67;;;;;;;;;;5013813;28;20100;-55
2021/05/15 04:12:49;;;;;;;3.03;2.83;;;;;;;;;;5014030;28;20022;-48
2021/05/15 04:15:35;;;;;;;2.80;2.70;;;;;;;;;;5013905;28;20037;-50
2021/05/15 04:18:11;;;;;;;2.63;2.50;;;15.80;85.80;;;;;;5013707;28;20038;-52
2021/05/15 04:20:43;;;;;;;2.90;2.80;;;15.90;86.40;;;;;;5013681;28;20026;-48
2021/05/15 04:23:12;;;;;;;2.58;2.47;;;15.90;86.80;;;;;;5013627;28;20068;-51
2021/05/15 04:25:40;;;;;;;2.47;2.20;;;16.00;86.70;;;;;;5013641;28;20048;-48
2021/05/15 04:28:08;;;;;;;2.35;2.20;;;16.00;86.10;;;;;;5013406;28;20032;-51
2021/05/15 04:30:36;;;;;;;2.42;2.20;;;16.00;85.80;;;;;;5013277;28;20046;-49
2021/05/15 04:33:04;;;;;;;2.47;2.28;;;15.90;87.20;;;;;;5013444;28;20393;-49
2021/05/15 04:35:32;;;;;;;2.10;2.00;;;15.90;87.00;;;;;;5013650;28;20050;-49
2021/05/15 04:38:05;;;;;;;3.33;2.30;;;15.90;86.90;;;;;;5013587;28;20022;-48
2021/05/15 04:40:33;;;;;;;4.28;2.80;;;15.90;88.30;;;;;;5013486;28;20025;-47
2021/05/15 04:43:01;;;;;;;2.53;2.42;;;15.90;86.30;;;;;;5013380;28;20026;-50
2021/05/15 04:45:31;;;;;;;2.40;2.30;;;15.90;86.10;;;;;;4995695;28;20026;-48
2021/05/15 04:47:59;;;;;;;2.80;2.58;;;16.10;85.60;;;;;;5013343;28;20117;-49
2021/05/15 04:50:27;;;;;;;2.47;2.38;;;16.00;85.90;;;;;;5013374;28;20525;-53
2021/05/15 04:52:54;;;;;;;2.40;2.30;;;15.90;86.70;;;;;;5013287;28;20026;-53
2021/05/15 04:55:22;;;;;;;2.70;2.50;;;16.00;87.10;;;;;;5013236;28;20018;-53
2021/05/15 04:57:49;;;;;;;2.50;2.40;;;16.00;87.20;;;;;;5012664;28;20080;-49
2021/05/15 05:00:17;;;;;;;2.90;2.70;;;16.00;87.10;;;;;;5013279;28;20142;-54
2021/05/15 05:02:44;;;;;;;2.60;2.50;;;15.90;87.50;;;;;;5013137;28;20018;-50
2021/05/15 05:05:12;;;;;;;2.60;2.50;;;15.80;87.20;;;;;;5012950;28;20030;-50
2021/05/15 05:07:39;;;;;;;2.67;2.58;;;15.80;87.20;;;;;;4995205;28;20126;-53
2021/05/15 05:10:07;;;;;;;2.47;2.38;;;15.90;88.70;;;;;;5012726;28;20397;-54
2021/05/15 05:12:35;;;;;;;2.60;2.40;;;16.00;89.00;;;;;;4995347;28;20148;-55
2021/05/15 05:15:02;;;;;;;4.30;2.70;;;16.10;87.30;;;;;;5012941;28;20018;-51
2021/05/15 05:17:30;;;;;;;2.42;2.33;;;16.10;86.80;;;;;;5012812;28;20030;-53
2021/05/15 05:19:57;;;;;;;3.35;2.25;;;16.10;85.30;;;;;;5012922;28;20097;-56
2021/05/15 05:22:25;;;;;;;3.83;2.60;;;16.10;85.10;;;;;;5012869;28;20026;-57
2021/05/15 05:24:52;;;;;;;2.60;2.40;;;15.90;84.60;;;;;;5012865;28;20033;-54
2021/05/15 05:27:21;;;;;;;2.42;2.22;;;15.80;84.70;;;;;;5012533;28;20022;-57
2021/05/15 05:29:49;;;;;;;2.40;2.30;;;15.80;85.30;;;;;;5012663;28;20050;-57
2021/05/15 05:32:17;;;;;;;2.53;2.35;;;15.60;83.20;;;;;;5012707;28;20056;-55
2021/05/15 05:34:45;;;;;;;2.30;2.20;;;15.50;83.70;;;;;;5012687;28;20057;-57
2021/05/15 05:37:12;;;;;;;2.45;2.00;;;15.50;84.30;;;;;;5012666;28;20021;-56
2021/05/15 05:39:40;;;;;;;2.97;2.20;;;15.30;85.50;;;;;;5012589;28;20022;-56
2021/05/15 05:42:07;;;;;;;2.20;2.10;;;15.20;84.70;;;;;;5012642;28;20037;-56
2021/05/15 05:44:35;;;;;;;3.08;2.78;;;15.10;84.80;;;;;;5012593;28;20482;-58
2021/05/15 05:47:02;;;;;;;3.25;3.05;;;15.10;85.20;;;;;;5012351;28;20030;-58
2021/05/15 05:49:29;;;;;;;3.33;3.13;;;15.10;86.70;;;;;;5012144;28;20025;-59
2021/05/15 05:51:59;;;;;;;3.20;3.00;;;15.10;84.70;;;;;;5012265;28;20026;-58
2021/05/15 05:54:27;;;;;;;2.70;2.60;;;15.10;85.30;;;;;;5012100;28;20022;-55
2021/05/15 05:56:54;;;;;;;3.13;2.92;;;15.10;84.90;;;;;;5012351;28;20308;-61
2021/05/15 05:59:21;;;;;;;4.07;3.00;;;15.10;85.00;;;;;;5012262;28;20026;-54
2021/05/15 06:01:49;;;;;;;3.20;2.78;;;15.00;87.10;;;;;;5012357;28;20038;-58
2021/05/15 06:04:16;;;;;;;2.90;2.70;;;15.00;88.20;;;;;;5012643;28;20029;-60
2021/05/15 06:06:43;;;;;;;3.15;2.88;;;14.90;86.20;;;;;;5012300;28;20161;-59
2021/05/15 06:09:11;;;;;;;3.10;2.90;;;14.80;87.00;;;;;;5015069;28;20474;-58
2021/05/15 06:11:38;;;;;;;3.00;2.80;;;14.80;85.50;;;;;;5015880;28;20022;-57
2021/05/15 06:14:05;;;;;;;3.00;2.80;;;14.80;85.80;;;;;;5015873;28;20014;-59
2021/05/15 06:16:33;;;;;;;2.90;2.70;;;14.80;86.10;;;;;;5015856;28;20025;-59
2021/05/15 06:19:00;;;;;;;3.00;2.80;;;14.80;87.40;;;;;;5015770;28;20029;-60
2021/05/15 06:21:27;;;;;;;2.53;2.40;;;14.70;87.10;;;;;;5015755;28;20030;-54
2021/05/15 06:23:55;;;;;;;2.50;2.40;;;14.70;87.00;;;;;;5015741;28;20022;-59
2021/05/15 06:26:22;;;;;;;2.78;2.50;;;14.70;87.00;;;;;;5015611;28;20088;-56
2021/05/15 06:28:50;;;;;;;2.80;2.60;;;14.60;88.80;;;;;;5015456;28;20018;-59
2021/05/15 06:31:17;;;;;;;7.05;2.60;;;14.60;87.60;;;;;;5015544;28;20486;-59
2021/05/15 06:33:44;;;;;;;3.10;2.90;;;14.60;88.10;;;;;;5015643;28;20028;-57
2021/05/15 06:36:12;;;;;;;3.00;2.80;;;14.40;88.00;;;;;;5015395;28;20093;-51
2021/05/15 06:38:42;;;;;;;2.90;2.65;;;14.30;86.90;;;;;;5015517;28;20022;-52
2021/05/15 06:41:09;;;;;;;2.90;2.60;;;14.30;87.60;;;;;;5015337;28;20034;-55
2021/05/15 06:43:37;;;;;;;4.65;3.53;;;14.30;88.30;;;;;;5015103;28;20434;-56
2021/05/15 06:46:04;;;;;;;3.10;2.90;;;14.20;88.60;;;;;;5015328;28;20034;-55
2021/05/15 06:48:34;;;;;;;4.22;3.40;;;14.20;88.40;;;;;;5015182;28;20061;-55
2021/05/15 06:51:01;;;;;;;3.90;3.60;;;14.10;88.90;;;;;;5015214;28;20021;-56
2021/05/15 06:53:29;;;;;;;3.38;3.08;;;14.00;88.70;;;;;;5015124;28;20261;-56
2021/05/15 06:55:56;;;;;;;3.83;3.60;;;14.00;89.30;;;;;;5014937;28;20072;-56
2021/05/15 06:58:23;;;;;;;3.28;3.08;;;14.00;90.10;;;;;;5015091;28;20026;-57
2021/05/15 07:00:51;;;;;;;4.07;2.78;;;13.90;89.90;;;;;;5015152;28;20060;-55
2021/05/15 07:03:18;;;;;;;3.42;3.10;;;13.90;89.80;;;;;;5015077;28;20018;-56
2021/05/15 07:05:46;;;;;;;3.13;3.03;;;13.80;90.20;;;;;;4997330;28;20034;-57
2021/05/15 07:08:14;;;;;;;3.30;3.10;;;13.70;90.20;;;;;;5014863;28;20028;-57
2021/05/15 07:10:41;;;;;;;3.08;2.97;;;13.80;90.20;;;;;;4997309;28;20050;-56
2021/05/15 07:13:08;;;;;;;3.28;3.08;;;13.70;90.70;;;;;;5014833;28;20125;-56
2021/05/15 07:15:36;;;;;;;2.88;2.78;;;13.70;90.70;;;;;;5014803;28;20072;-57
2021/05/15 07:18:03;;;;;;;3.08;2.80;;;13.60;90.30;;;;;;5014760;28;20022;-56
2021/05/15 07:20:31;;;;;;;3.15;2.95;;;13.60;90.00;;;;;;5014190;28;20033;-62
2021/05/15 07:22:58;;;;;;;3.25;3.00;;;13.60;89.80;;;;;;5014214;28;20048;-58
2021/05/15 07:25:26;;;;;;;3.00;2.90;;;13.60;90.20;;;;;;4997165;28;20026;-57
2021/05/15 07:27:53;;;;;;;4.40;4.00;;;13.60;90.10;;;;;;5014479;28;20080;-56
2021/05/15 07:30:21;;;;;;;4.05;3.70;;;13.60;89.80;;;;;;5014366;28;20038;-58
2021/05/15 07:32:48;;;;;;;2.63;2.42;;;13.60;89.90;;;;;;5014528;28;20022;-58
2021/05/15 07:35:16;;;;;;;2.80;2.70;;;13.60;90.00;;;;;;5014494;28;20014;-56
2021/05/15 07:37:43;;;;;;;2.95;2.80;;;13.60;90.30;;;;;;4996700;28;20025;-58
2021/05/15 07:40:11;;;;;;;3.35;3.10;;;13.50;90.40;;;;;;5014473;28;20026;-58
2021/05/15 07:42:38;;;;;;;3.10;2.90;;;13.50;90.50;;;;;;5014377;28;20033;-56
2021/05/15 07:45:07;;;;;;;3.55;3.30;;;13.50;90.40;;;;;;5014271;28;20482;-56
2021/05/15 07:47:34;;;;;;;4.32;2.88;;;13.50;90.50;;;;;;5014156;28;20048;-57
2021/05/15 07:50:01;;;;;;;2.80;2.70;;;13.50;90.20;;;;;;5014279;28;20029;-57
2021/05/15 07:52:28;;;;;;;3.08;2.88;;;13.50;90.40;;;;;;5014198;28;20025;-57
2021/05/15 07:54:56;;;;;;;3.20;2.95;;;13.40;90.20;;;;;;5014223;28;20022;-57
2021/05/15 07:57:24;;;;;;;3.00;2.80;;;13.50;90.10;;;;;;5014324;28;20026;-57
2021/05/15 07:59:52;;;;;;;3.55;2.90;;;13.40;89.50;;;;;;5014223;28;20029;-56
2021/05/15 08:02:21;;;;;;;4.28;3.20;;;13.40;89.40;;;;;;5014160;28;20026;-56
2021/05/15 08:04:48;;;;;;;3.22;3.00;;;13.40;89.50;;;;;;4996441;28;20490;-57
2021/05/15 08:07:15;;;;;;;3.35;3.10;;;13.40;88.70;;;;;;5013961;28;20024;-58
2021/05/15 08:09:43;;;;;;;3.15;2.95;;;13.40;89.40;;;;;;5014098;28;20017;-57
2021/05/15 08:12:10;;;;;;;3.45;2.85;;;13.40;89.10;;;;;;5013914;28;20022;-57
2021/05/15 08:14:37;;;;;;;3.30;3.10;;;13.30;89.30;;;;;;5014066;28;20022;-55
2021/05/15 08:17:05;;;;;;;3.47;3.17;;;13.30;89.30;;;;;;5013856;28;20028;-57
2021/05/15 08:19:32;;;;;;;3.05;2.85;;;13.30;89.30;;;;;;4996193;28;20029;-59
2021/05/15 08:22:00;;;;;;;4.78;4.38;;;13.30;89.40;;;;;;5013680;28;20022;-56
2021/05/15 08:24:27;;;;;;;3.10;2.90;;;13.30;90.50;;;;;;5013809;28;20097;-58
2021/05/15 08:26:56;;;;;;;5.45;4.10;;;13.30;90.10;;;;;;5013625;28;20433;-59
2021/05/15 08:29:25;;;;;;;3.30;3.00;;;13.20;90.30;;;;;;5013625;28;20050;-58
2021/05/15 08:31:52;;;;;;;3.00;2.80;;;13.20;90.20;;;;;;5013081;28;20030;-61
2021/05/15 08:34:19;;;;;;;2.83;2.63;;;13.20;90.10;;;;;;5013676;28;20472;-61
2021/05/15 08:36:48;;;;;;;3.22;2.92;;;13.10;90.20;;;;;;5013666;28;20518;-60
2021/05/15 08:39:15;;;;;;;3.38;3.17;;;13.10;90.70;;;;;;5013354;28;20037;-60
2021/05/15 08:41:43;;;;;;;4.40;4.00;;;13.00;90.60;;;;;;5013614;28;20021;-58
2021/05/15 08:44:13;;;;;;;3.95;2.92;;;12.90;90.90;;;;;;5013378;28;20165;-58
2021/05/15 08:46:45;;;;;;;3.55;3.17;;;13.00;90.70;;;;;;5013571;28;20096;-62
2021/05/15 08:49:15;;;;;;;3.60;3.30;;;12.90;90.80;;;;;;5013232;28;20030;-60
2021/05/15 08:51:43;;;;;;;3.10;2.90;;;12.80;91.30;;;;;;5013152;28;20068;-57
2021/05/15 08:54:11;;;;;;;4.05;2.83;;;12.80;91.10;;;;;;5013408;28;20470;-61
2021/05/15 08:56:39;;;;;;;2.90;2.70;;;12.70;91.10;;;;;;5013660;28;20053;-61
2021/05/15 08:59:07;;;;;;;2.75;2.55;;;12.70;91.20;;;;;;5013382;28;20029;-61
2021/05/15 09:01:34;;;;;;;3.30;3.10;;;12.70;91.00;;;;;;5013284;28;20022;-61
2021/05/15 09:04:02;;;;;;;2.78;2.58;;;12.70;91.10;;;;;;5013258;28;20026;-62
2021/05/15 09:06:29;;;;;;;2.70;2.50;;;12.70;91.50;;;;;;5013291;28;20059;-61
2021/05/15 09:08:56;;;;;;;3.00;2.80;;;12.60;91.00;;;;;;5013047;28;20022;-60
2021/05/15 09:11:24;;;;;;;3.10;2.75;;;12.60;91.30;;;;;;5013123;28;20108;-61
2021/05/15 09:13:53;;;;;;;2.78;2.58;;;12.60;91.10;;;;;;5013073;28;20069;-61
2021/05/15 09:16:22;;;;;;;3.10;2.63;;;12.70;90.90;;;;;;4995474;28;20049;-60
2021/05/15 09:18:50;;;;;;;3.05;2.75;;;12.60;91.90;;;;;;5013110;28;20029;-60
2021/05/15 09:21:22;;;;;;;3.10;2.90;;;12.60;91.00;;;;;;5013365;28;20022;-60
2021/05/15 09:23:51;;;;;;;3.38;3.05;;;12.60;91.50;;;;;;5013063;28;20022;-57
2021/05/15 09:26:27;;;;;;;2.85;2.65;;;12.50;91.50;;;;;;5012912;28;20025;-61
2021/05/15 09:28:59;;;;;;;3.63;3.13;;;12.50;91.60;;;;;;5012969;28;20041;-59
2021/05/15 09:31:32;;;;;;;2.80;2.60;;;12.40;91.90;;;;;;5013002;28;20014;-59
2021/05/15 09:34:04;;;;;;;3.10;2.90;;;12.40;91.80;;;;;;5012904;28;20073;-61
2021/05/15 09:36:44;;;;;;;3.08;2.83;;;12.30;91.90;;;;;;5013064;28;20030;-61
2021/05/15 09:39:18;;;;;;;2.90;2.67;;;12.30;91.50;;;;;;5013060;28;20041;-59
2021/05/15 09:41:53;;;;;;;3.00;2.70;;;12.30;91.80;;;;;;5012880;28;20771;-61
2021/05/15 09:44:26;;;;;;;2.70;2.50;;;12.20;91.80;;;;;;5016082;28;20029;-61
2021/05/15 09:46:55;;;;;;;2.88;2.65;;;12.20;91.70;;;;;;5016926;28;20478;-57
2021/05/15 09:49:25;;;;;;;5.28;3.17;;;12.20;91.90;;;;;;5016686;28;20521;-59
2021/05/15 09:51:56;;;;;;;3.75;3.03;;;12.20;91.60;;;;;;5016715;28;20026;-61
2021/05/15 09:54:25;;;;;;;5.50;3.13;;;12.10;92.10;;;;;;5016674;28;20033;-59
2021/05/15 09:56:57;;;;;;;5.18;3.00;;;12.20;91.80;;;;;;5016553;28;20025;-62
2021/05/15 09:59:30;;;;;;;3.20;3.00;;;12.10;92.00;;;;;;4998881;28;20029;-60
2021/05/15 10:02:00;;;;;;;3.17;2.97;;;12.20;91.80;;;;;;5016394;28;20033;-58
2021/05/15 10:04:28;;;;;;;4.95;3.33;;;12.10;92.20;;;;;;5016492;28;20025;-56
2021/05/15 10:06:56;;;;;;;2.97;2.78;;;12.00;92.10;;;;;;5016479;28;20030;-60
2021/05/15 10:09:35;;;;;;;3.97;3.03;;;12.00;92.20;;;;;;5016382;28;20026;-57
2021/05/15 10:12:05;;;;;;;3.30;3.00;;;12.00;92.10;;;;;;5016191;28;20034;-60
2021/05/15 10:14:32;;;;;;;3.15;2.92;;;12.00;92.10;;;;;;5016088;28;20394;-61
2021/05/15 10:17:01;;;;;;;3.30;3.10;;;12.00;92.00;;;;;;5016023;28;20390;-59
2021/05/15 10:19:29;;;;;;;3.10;2.90;;;12.00;92.10;;;;;;5016156;28;20062;-61
2021/05/15 10:21:58;;;;;;;3.22;3.00;;;12.00;92.20;;;;;;5016026;28;20021;-59
2021/05/15 10:24:28;;;;;;;2.70;2.50;;;11.90;92.30;;;;;;5015810;28;20022;-55
2021/05/15 10:27:08;;;;;;;3.10;2.90;;;11.90;92.10;;;;;;5015971;28;20485;-61
2021/05/15 10:29:49;;;;;;;3.63;3.10;;;11.90;92.00;;;;;;5015744;28;20069;-60
2021/05/15 10:32:22;;;;;;;3.45;3.05;;;11.90;92.20;;;;;;5015820;28;20530;-60
2021/05/15 10:35:01;;;;;;;3.17;2.88;;;11.90;92.40;;;;;;5015665;28;20081;-59
2021/05/15 10:37:37;;;;;;;3.15;2.90;;;11.90;92.10;;;;;;5015709;28;20438;-57
2021/05/15 10:40:19;;;;;;;3.33;3.08;;;11.80;92.20;;;;;;5015625;28;20022;-60
2021/05/15 10:43:01;;;;;;;2.92;2.67;;;11.90;92.20;;;;;;5015646;28;20044;-58
2021/05/15 10:45:43;;;;;;;4.28;3.10;;;11.80;92.30;;;;;;5015642;28;20053;-57
2021/05/15 10:48:24;;;;;;;2.83;2.63;;;11.70;92.40;;;;;;5015383;28;20394;-58
2021/05/15 10:51:00;;;;;;;3.03;2.80;;;11.70;92.50;;;;;;5015421;28;20153;-58
2021/05/15 10:53:31;;;;;;;2.75;2.55;;;11.70;92.50;;;;;;4998820;28;20093;-61
2021/05/15 10:56:18;;;;;;;2.97;2.60;;;11.70;92.40;;;;;;5014564;28;20105;-62
2021/05/15 10:58:51;;;;;;;4.18;3.17;;;11.60;92.70;;;;;;5015211;28;20501;-60
2021/05/15 11:01:21;;;;;;;3.10;2.80;;;11.50;93.10;;;;;;5015076;28;20408;-60
2021/05/15 11:03:49;;;;;;;5.85;3.08;;;11.60;92.80;;;;;;5015106;28;20026;-58
2021/05/15 11:06:18;;;;;;;3.25;2.95;;;11.60;93.10;;;;;;5015065;28;20030;-58
2021/05/15 11:09:00;;;;;;;3.05;2.85;;;11.50;93.30;;;;;;5014927;28;20101;-60
2021/05/15 11:11:44;;;;;;;3.20;3.00;;;11.50;93.00;;;;;;5015049;28;20054;-55
2021/05/15 11:14:29;;;;;;;2.60;2.50;;;11.50;93.00;;;;;;5014903;28;20108;-56
2021/05/15 11:17:10;;;;;;;2.83;2.60;;;11.40;93.00;;;;;;5014662;28;20509;-59
2021/05/15 11:19:37;;;;;;;;;;;11.50;92.90;;;;;;5015228;28;20025;-58
2021/05/15 11:22:05;;;;;;;3.25;2.97;;;11.40;92.90;;;;;;4997171;28;19909;-60
2021/05/15 11:24:34;;;;;;;3.22;3.03;;;11.40;93.20;;;;;;5014667;28;20362;-59
2021/05/15 11:27:13;;;;;;;3.50;3.20;;;11.30;93.30;;;;;;5014558;28;20181;-58
2021/05/15 11:29:41;;;;;;;3.50;3.20;;;11.30;93.40;;;;;;5014312;28;20410;-60
2021/05/15 11:32:15;;;;;;;3.30;3.10;;;11.30;93.40;;;;;;5014620;28;20026;-57
2021/05/15 11:34:44;;;;;;;3.78;3.50;;;11.20;93.40;;;;;;5014349;28;20080;-59
2021/05/15 11:37:14;;;;;;;3.63;3.42;;;11.30;93.40;;;;;;5014408;28;20036;-59
2021/05/15 11:39:41;;;;;;;3.07;2.83;;;11.30;93.50;;;;;;5014518;28;20022;-62
2021/05/15 11:42:14;;;;;;;5.15;3.00;;;11.30;93.40;;;;;;5014492;28;20104;-60
2021/05/15 11:44:43;;;;;;;2.90;2.70;;;11.20;93.70;;;;;;5014293;28;20080;-60
2021/05/15 11:47:12;;;;;;;2.88;2.67;;;11.10;93.80;;;;;;5013929;28;20383;-60
2021/05/15 11:49:39;;;;;;;2.72;2.53;;;11.10;94.90;;;;;;4996572;28;20447;-61
2021/05/15 11:52:10;;;;;;;3.17;2.70;;;11.00;94.30;;;;;;5014286;28;20045;-61
2021/05/15 11:54:39;;;;;;;3.60;3.40;;;11.00;94.20;;;;;;5014205;28;20021;-59
2021/05/15 11:57:06;;;;;;;3.70;3.40;;;10.90;94.50;;;;;;5014198;28;20036;-60
2021/05/15 11:59:33;;;;;;;4.18;3.33;;;11.10;94.20;;;;;;4996266;28;20106;-60
2021/05/15 12:02:01;;;;;;;3.60;3.30;;;11.10;94.20;;;;;;5013931;28;20109;-60
2021/05/15 12:04:31;;;;;;;3.45;3.20;;;11.10;94.20;;;;;;5013970;28;20021;-60
2021/05/15 12:07:05;;;;;;;3.22;3.03;;;11.00;94.50;;;;;;5013817;28;20065;-60
2021/05/15 12:09:33;;;;;;;3.30;3.10;;;11.00;95.10;;;;;;5013687;28;20048;-62
2021/05/15 12:12:01;;;;;;;3.92;3.10;;;11.00;94.60;;;;;;5013899;28;20026;-61
2021/05/15 12:14:30;;;;;;;3.60;3.40;;;11.00;94.80;;;;;;5013732;28;20022;-59
2021/05/15 12:17:05;;;;;;;3.28;3.08;;;11.10;94.50;;;;;;4996332;28;20383;-59
2021/05/15 12:19:33;;;;;;;2.90;2.70;;;11.00;94.70;;;;;;5013684;28;20041;-60
2021/05/15 12:22:02;;;;;;;2.75;2.55;;;11.00;94.60;;;;;;5013610;28;20038;-60
2021/05/15 12:24:41;;;;;;;2.45;2.30;;;10.90;94.60;;;;;;5013907;28;20036;-59
2021/05/15 12:27:09;;;;;;;2.67;2.47;;;10.80;94.80;;;;;;5014026;28;20025;-57
2021/05/15 12:29:37;;;;;;;3.10;2.90;;;10.80;94.60;;;;;;5013629;28;20112;-58
2021/05/15 12:32:05;;;;;;;3.35;3.15;;;10.90;94.60;;;;;;4995978;28;20030;-59
2021/05/15 12:34:33;;;;;;;2.70;2.50;;;10.80;95.20;;;;;;5013519;28;20434;-58
2021/05/15 12:37:00;;;;;;;2.85;2.50;;;10.90;94.80;;;;;;5013623;28;20069;-60
2021/05/15 12:39:35;;;;;;;2.78;2.60;;;10.80;94.70;;;;;;5013654;28;20081;-59
2021/05/15 12:42:03;;;;;;;3.03;2.83;;;10.80;95.10;;;;;;5014017;28;20445;-60
2021/05/15 12:44:41;;;;;;;2.88;2.60;;;10.80;95.00;;;;;;5013760;28;20358;-60
2021/05/15 12:47:10;;;;;;;3.00;2.90;;;10.70;94.90;;;;;;5013517;28;20033;-60
2021/05/15 12:49:43;;;;;;;3.20;2.90;;;10.70;95.00;;;;;;5013449;28;20033;-58
2021/05/15 12:52:23;;;;;;;3.13;3.00;;;10.70;95.00;;;;;;5013792;28;20040;-60
2021/05/15 12:54:54;;;;;;;3.30;3.00;;;10.70;94.90;;;;;;4996608;28;20045;-57
2021/05/15 12:57:21;;;;;;;3.10;2.90;;;10.70;95.10;;;;;;5013379;28;20057;-58
2021/05/15 12:59:55;;;;;;;2.90;2.70;;;10.60;95.30;;;;;;5013276;28;20045;-56